TimeCDT,TemperatureF,Dew PointF,Humidity,Sea Level PressureIn,VisibilityMPH,Wind Direction,Wind SpeedMPH,Gust SpeedMPH,PrecipitationIn,Events,Conditions,WindDirDegrees,DateUTC
12:56 AM,68.0,54.0,61,29.84,10.0,SSE,12.7,18.4,N/A,,Mostly Cloudy,160,2013-10-12 05:56:00
1:56 AM,66.0,54.0,65,29.84,10.0,SSE,9.2,-,N/A,,Mostly Cloudy,150,2013-10-12 06:56:00
2:56 AM,64.9,55.0,70,29.84,7.0,SE,4.6,-,0.00,Rain,Light Rain,140,2013-10-12 07:56:00
3:56 AM,64.0,55.9,75,29.84,10.0,Variable,4.6,-,0.00,,Overcast,0,2013-10-12 08:56:00
4:56 AM,62.1,55.0,78,29.83,10.0,ENE,5.8,-,N/A,,Partly Cloudy,70,2013-10-12 09:56:00
5:56 AM,61.0,55.0,81,29.85,10.0,ESE,4.6,-,N/A,,Clear,120,2013-10-12 10:56:00
6:56 AM,60.1,55.0,83,29.86,10.0,Calm,Calm,-,N/A,,Scattered Clouds,0,2013-10-12 11:56:00
7:05 AM,60.8,55.4,82,29.88,10.0,SSE,3.5,-,N/A,,Mostly Cloudy,150,2013-10-12 12:05:00
7:56 AM,63.0,57.0,81,29.88,9.0,South,8.1,-,N/A,,Overcast,180,2013-10-12 12:56:00
8:28 AM,62.6,57.2,82,29.90,9.0,South,6.9,-,N/A,,Mostly Cloudy,190,2013-10-12 13:28:00
8:56 AM,63.0,57.0,81,29.90,9.0,SSW,9.2,-,N/A,,Mostly Cloudy,200,2013-10-12 13:56:00
9:56 AM,62.1,52.0,70,29.92,10.0,West,6.9,-,N/A,,Scattered Clouds,270,2013-10-12 14:56:00
10:56 AM,62.1,46.9,58,29.94,10.0,West,11.5,-,N/A,,Clear,260,2013-10-12 15:56:00
11:56 AM,64.0,46.9,54,29.95,10.0,West,10.4,-,N/A,,Clear,280,2013-10-12 16:56:00
12:56 PM,64.9,44.1,47,29.95,10.0,West,16.1,21.9,N/A,,Clear,270,2013-10-12 17:56:00
1:56 PM,66.0,44.1,45,29.95,10.0,WSW,12.7,21.9,N/A,,Clear,250,2013-10-12 18:56:00
2:56 PM,66.0,43.0,43,29.96,10.0,West,18.4,27.6,N/A,,Clear,280,2013-10-12 19:56:00
3:56 PM,66.0,41.0,40,29.99,10.0,West,15.0,21.9,N/A,,Clear,260,2013-10-12 20:56:00
4:56 PM,64.9,39.9,40,30.01,10.0,West,19.6,25.3,N/A,,Clear,280,2013-10-12 21:56:00
5:56 PM,63.0,39.0,41,30.04,10.0,West,9.2,-,N/A,,Clear,270,2013-10-12 22:56:00
6:56 PM,59.0,37.9,46,30.06,10.0,West,8.1,-,N/A,,Clear,270,2013-10-12 23:56:00
7:56 PM,55.0,37.9,53,30.09,10.0,Calm,Calm,-,N/A,,Clear,0,2013-10-13 00:56:00
8:56 PM,48.0,39.0,71,30.11,10.0,Calm,Calm,-,N/A,,Clear,0,2013-10-13 01:56:00
9:56 PM,43.0,37.9,82,30.13,10.0,Calm,Calm,-,N/A,,Clear,0,2013-10-13 02:56:00
10:56 PM,41.0,37.0,86,30.16,10.0,Calm,Calm,-,N/A,,Clear,0,2013-10-13 03:56:00
11:56 PM,39.9,37.0,89,30.18,10.0,Calm,Calm,-,N/A,,Clear,0,2013-10-13 04:56:00